sensor_id;sensor_type;location;lat;lon;timestamp;temperature;humidity
41080;DHT22;26826;50.718;7.114;2022-07-17T00:05:36;16.70;99.90
41080;DHT22;26826;50.718;7.114;2022-07-17T00:15:37;16.70;99.90
41080;DHT22;26826;50.718;7.114;2022-07-17T00:25:38;16.70;99.90
41080;DHT22;26826;50.718;7.114;2022-07-17T00:35:39;16.90;99.90
41080;DHT22;26826;50.718;7.114;2022-07-17T00:45:39;16.10;99.90
41080;DHT22;26826;50.718;7.114;2022-07-17T00:55:41;15.70;99.90
41080;DHT22;26826;50.718;7.114;2022-07-17T01:05:42;15.70;99.90
41080;DHT22;26826;50.718;7.114;2022-07-17T01:15:43;15.70;99.90
41080;DHT22;26826;50.718;7.114;2022-07-17T01:25:44;15.50;99.90
41080;DHT22;26826;50.718;7.114;2022-07-17T01:35:45;15.40;99.90
41080;DHT22;26826;50.718;7.114;2022-07-17T01:46:06;15.30;99.90
41080;DHT22;26826;50.718;7.114;2022-07-17T01:56:07;15.30;99.90
41080;DHT22;26826;50.718;7.114;2022-07-17T02:06:09;14.90;99.90
41080;DHT22;26826;50.718;7.114;2022-07-17T02:16:10;14.80;99.90
41080;DHT22;26826;50.718;7.114;2022-07-17T02:26:10;14.70;99.90
41080;DHT22;26826;50.718;7.114;2022-07-17T02:36:11;14.40;99.90
41080;DHT22;26826;50.718;7.114;2022-07-17T02:46:11;14.20;99.90
41080;DHT22;26826;50.718;7.114;2022-07-17T02:56:13;14.10;99.90
41080;DHT22;26826;50.718;7.114;2022-07-17T03:06:14;13.90;99.90
41080;DHT22;26826;50.718;7.114;2022-07-17T03:16:14;13.80;99.90
41080;DHT22;26826;50.718;7.114;2022-07-17T03:26:15;13.60;99.90
41080;DHT22;26826;50.718;7.114;2022-07-17T03:36:16;13.50;99.90
41080;DHT22;26826;50.718;7.114;2022-07-17T03:46:16;13.40;99.90
41080;DHT22;26826;50.718;7.114;2022-07-17T03:56:17;13.30;99.90
41080;DHT22;26826;50.718;7.114;2022-07-17T04:06:17;13.50;99.90
41080;DHT22;26826;50.718;7.114;2022-07-17T04:16:18;13.20;99.90
41080;DHT22;26826;50.718;7.114;2022-07-17T04:26:18;13.10;99.90
41080;DHT22;26826;50.718;7.114;2022-07-17T04:36:19;13.20;99.90
41080;DHT22;26826;50.718;7.114;2022-07-17T04:46:20;13.40;99.90
41080;DHT22;26826;50.718;7.114;2022-07-17T04:56:20;13.60;99.90
41080;DHT22;26826;50.718;7.114;2022-07-17T05:06:21;14.00;99.90
41080;DHT22;26826;50.718;7.114;2022-07-17T05:16:21;13.80;99.90
41080;DHT22;26826;50.718;7.114;2022-07-17T05:26:22;13.70;99.90
41080;DHT22;26826;50.718;7.114;2022-07-17T05:36:22;13.80;99.90
41080;DHT22;26826;50.718;7.114;2022-07-17T05:46:23;14.30;99.90
41080;DHT22;26826;50.718;7.114;2022-07-17T05:56:23;14.40;99.90
41080;DHT22;26826;50.718;7.114;2022-07-17T06:06:24;14.40;99.90
41080;DHT22;26826;50.718;7.114;2022-07-17T06:16:24;15.00;99.90
41080;DHT22;26826;50.718;7.114;2022-07-17T06:26:25;15.80;99.90
41080;DHT22;26826;50.718;7.114;2022-07-17T06:36:25;16.70;99.90
41080;DHT22;26826;50.718;7.114;2022-07-17T06:46:26;17.50;99.90
41080;DHT22;26826;50.718;7.114;2022-07-17T06:56:26;18.00;99.90
41080;DHT22;26826;50.718;7.114;2022-07-17T07:06:27;18.70;99.90
41080;DHT22;26826;50.718;7.114;2022-07-17T07:16:28;19.30;99.90
41080;DHT22;26826;50.718;7.114;2022-07-17T07:26:28;19.60;99.90
41080;DHT22;26826;50.718;7.114;2022-07-17T07:36:30;20.10;99.90
41080;DHT22;26826;50.718;7.114;2022-07-17T07:46:30;20.60;99.90
41080;DHT22;26826;50.718;7.114;2022-07-17T07:56:31;21.40;96.00
41080;DHT22;26826;50.718;7.114;2022-07-17T08:06:32;22.00;94.50
41080;DHT22;26826;50.718;7.114;2022-07-17T08:16:32;22.20;91.90
41080;DHT22;26826;50.718;7.114;2022-07-17T08:26:33;23.00;91.40
41080;DHT22;26826;50.718;7.114;2022-07-17T08:36:34;22.90;89.90
41080;DHT22;26826;50.718;7.114;2022-07-17T08:46:39;23.20;87.80
41080;DHT22;26826;50.718;7.114;2022-07-17T08:56:39;24.80;85.40
41080;DHT22;26826;50.718;7.114;2022-07-17T09:06:40;25.60;80.90
41080;DHT22;26826;50.718;7.114;2022-07-17T09:26:49;27.00;74.30
41080;DHT22;26826;50.718;7.114;2022-07-17T09:37:00;27.70;70.80
41080;DHT22;26826;50.718;7.114;2022-07-17T09:47:02;28.30;69.20
41080;DHT22;26826;50.718;7.114;2022-07-17T09:57:02;28.40;68.60
41080;DHT22;26826;50.718;7.114;2022-07-17T10:07:03;29.00;66.60
41080;DHT22;26826;50.718;7.114;2022-07-17T10:17:07;30.10;62.20
41080;DHT22;26826;50.718;7.114;2022-07-17T10:27:07;28.80;63.70
41080;DHT22;26826;50.718;7.114;2022-07-17T10:37:23;29.50;63.80
41080;DHT22;26826;50.718;7.114;2022-07-17T10:47:24;29.70;62.20
41080;DHT22;26826;50.718;7.114;2022-07-17T10:57:24;30.70;61.50
41080;DHT22;26826;50.718;7.114;2022-07-17T11:07:25;31.50;59.20
41080;DHT22;26826;50.718;7.114;2022-07-17T11:17:26;31.80;57.40
41080;DHT22;26826;50.718;7.114;2022-07-17T11:27:27;31.30;57.70
41080;DHT22;26826;50.718;7.114;2022-07-17T11:37:29;32.40;56.70
41080;DHT22;26826;50.718;7.114;2022-07-17T11:47:30;33.10;55.40
41080;DHT22;26826;50.718;7.114;2022-07-17T11:57:47;33.30;55.10
41080;DHT22;26826;50.718;7.114;2022-07-17T12:07:48;33.30;54.00
41080;DHT22;26826;50.718;7.114;2022-07-17T12:17:49;33.10;53.00
41080;DHT22;26826;50.718;7.114;2022-07-17T12:27:49;32.80;51.90
41080;DHT22;26826;50.718;7.114;2022-07-17T12:37:50;33.10;52.10
41080;DHT22;26826;50.718;7.114;2022-07-17T12:47:50;33.00;52.20
41080;DHT22;26826;50.718;7.114;2022-07-17T12:57:51;33.00;52.30
41080;DHT22;26826;50.718;7.114;2022-07-17T13:07:51;33.60;52.00
41080;DHT22;26826;50.718;7.114;2022-07-17T13:17:52;34.10;51.00
41080;DHT22;26826;50.718;7.114;2022-07-17T13:27:52;34.10;50.80
41080;DHT22;26826;50.718;7.114;2022-07-17T13:47:56;34.50;49.80
41080;DHT22;26826;50.718;7.114;2022-07-17T13:57:57;34.30;48.20
41080;DHT22;26826;50.718;7.114;2022-07-17T14:07:59;34.10;49.10
41080;DHT22;26826;50.718;7.114;2022-07-17T14:18:00;34.10;48.80
41080;DHT22;26826;50.718;7.114;2022-07-17T14:28:01;33.80;47.40
41080;DHT22;26826;50.718;7.114;2022-07-17T14:38:02;33.90;47.40
41080;DHT22;26826;50.718;7.114;2022-07-17T14:48:02;33.90;47.90
41080;DHT22;26826;50.718;7.114;2022-07-17T14:58:03;33.90;46.10
41080;DHT22;26826;50.718;7.114;2022-07-17T15:08:04;33.40;47.50
41080;DHT22;26826;50.718;7.114;2022-07-17T15:18:04;33.10;48.30
41080;DHT22;26826;50.718;7.114;2022-07-17T15:28:09;33.90;48.60
41080;DHT22;26826;50.718;7.114;2022-07-17T15:38:27;33.80;47.60
41080;DHT22;26826;50.718;7.114;2022-07-17T15:48:27;33.10;46.70
41080;DHT22;26826;50.718;7.114;2022-07-17T15:58:28;33.40;47.10
41080;DHT22;26826;50.718;7.114;2022-07-17T16:08:28;33.40;46.80
41080;DHT22;26826;50.718;7.114;2022-07-17T16:18:29;33.20;46.80
41080;DHT22;26826;50.718;7.114;2022-07-17T16:28:30;33.40;47.50
41080;DHT22;26826;50.718;7.114;2022-07-17T16:38:30;34.00;47.50
41080;DHT22;26826;50.718;7.114;2022-07-17T16:48:31;32.30;48.80
41080;DHT22;26826;50.718;7.114;2022-07-17T16:58:31;31.60;49.10
41080;DHT22;26826;50.718;7.114;2022-07-17T17:08:32;31.40;50.20
41080;DHT22;26826;50.718;7.114;2022-07-17T17:18:33;31.40;50.20
41080;DHT22;26826;50.718;7.114;2022-07-17T17:28:33;31.60;50.30
41080;DHT22;26826;50.718;7.114;2022-07-17T17:38:34;30.90;51.30
41080;DHT22;26826;50.718;7.114;2022-07-17T17:48:34;30.60;52.60
41080;DHT22;26826;50.718;7.114;2022-07-17T17:58:35;30.70;52.40
41080;DHT22;26826;50.718;7.114;2022-07-17T18:08:35;30.40;53.10
41080;DHT22;26826;50.718;7.114;2022-07-17T18:18:36;29.90;55.00
41080;DHT22;26826;50.718;7.114;2022-07-17T18:28:37;29.60;54.90
41080;DHT22;26826;50.718;7.114;2022-07-17T18:38:37;30.10;54.70
41080;DHT22;26826;50.718;7.114;2022-07-17T18:48:38;30.20;54.10
41080;DHT22;26826;50.718;7.114;2022-07-17T18:58:39;29.20;55.90
41080;DHT22;26826;50.718;7.114;2022-07-17T19:08:40;28.40;56.60
41080;DHT22;26826;50.718;7.114;2022-07-17T19:18:40;27.70;57.60
41080;DHT22;26826;50.718;7.114;2022-07-17T19:28:41;27.20;58.70
41080;DHT22;26826;50.718;7.114;2022-07-17T19:48:59;25.80;61.20
41080;DHT22;26826;50.718;7.114;2022-07-17T19:59:00;25.40;62.30
41080;DHT22;26826;50.718;7.114;2022-07-17T20:09:00;24.90;64.50
41080;DHT22;26826;50.718;7.114;2022-07-17T20:19:01;24.40;65.90
41080;DHT22;26826;50.718;7.114;2022-07-17T20:29:02;24.10;67.30
41080;DHT22;26826;50.718;7.114;2022-07-17T20:39:04;23.80;68.10
41080;DHT22;26826;50.718;7.114;2022-07-17T20:49:05;23.50;68.60
41080;DHT22;26826;50.718;7.114;2022-07-17T20:59:05;23.40;69.80
41080;DHT22;26826;50.718;7.114;2022-07-17T21:09:06;23.00;71.20
41080;DHT22;26826;50.718;7.114;2022-07-17T21:19:06;22.70;73.00
41080;DHT22;26826;50.718;7.114;2022-07-17T21:29:07;22.30;73.90
41080;DHT22;26826;50.718;7.114;2022-07-17T21:39:07;22.00;74.60
41080;DHT22;26826;50.718;7.114;2022-07-17T21:49:08;21.70;75.80
41080;DHT22;26826;50.718;7.114;2022-07-17T21:59:09;21.90;77.00
41080;DHT22;26826;50.718;7.114;2022-07-17T22:09:09;21.50;78.10
41080;DHT22;26826;50.718;7.114;2022-07-17T22:19:10;21.40;78.40
41080;DHT22;26826;50.718;7.114;2022-07-17T22:29:11;21.10;80.10
41080;DHT22;26826;50.718;7.114;2022-07-17T22:39:11;20.80;82.30
41080;DHT22;26826;50.718;7.114;2022-07-17T22:49:12;20.70;84.50
41080;DHT22;26826;50.718;7.114;2022-07-17T22:59:12;20.30;88.40
41080;DHT22;26826;50.718;7.114;2022-07-17T23:09:13;20.00;92.00
41080;DHT22;26826;50.718;7.114;2022-07-17T23:19:14;20.00;93.90
41080;DHT22;26826;50.718;7.114;2022-07-17T23:29:14;19.80;96.30
41080;DHT22;26826;50.718;7.114;2022-07-17T23:39:15;19.40;98.50
41080;DHT22;26826;50.718;7.114;2022-07-17T23:49:15;19.60;98.50
41080;DHT22;26826;50.718;7.114;2022-07-17T23:59:16;19.50;99.20
